sensor_id;sensor_type;location;lat;lon;timestamp;P1;durP1;ratioP1;P2;durP2;ratioP2
13590;SDS011;6866;50.778;7.206;2023-03-01T00:01:06;25.80;;;12.05;;
13590;SDS011;6866;50.778;7.206;2023-03-01T00:03:34;21.50;;;11.80;;
13590;SDS011;6866;50.778;7.206;2023-03-01T00:06:00;20.45;;;11.55;;
13590;SDS011;6866;50.778;7.206;2023-03-01T00:08:26;21.02;;;11.40;;
13590;SDS011;6866;50.778;7.206;2023-03-01T00:11:02;20.35;;;10.73;;
13590;SDS011;6866;50.778;7.206;2023-03-01T00:13:30;21.65;;;11.52;;
13590;SDS011;6866;50.778;7.206;2023-03-01T00:15:56;21.67;;;11.52;;
13590;SDS011;6866;50.778;7.206;2023-03-01T00:18:22;21.45;;;11.98;;
13590;SDS011;6866;50.778;7.206;2023-03-01T00:20:54;20.15;;;11.10;;
13590;SDS011;6866;50.778;7.206;2023-03-01T00:23:20;23.70;;;11.40;;
13590;SDS011;6866;50.778;7.206;2023-03-01T00:25:47;19.27;;;12.40;;
13590;SDS011;6866;50.778;7.206;2023-03-01T00:28:12;23.42;;;13.50;;
13590;SDS011;6866;50.778;7.206;2023-03-01T00:30:38;22.33;;;11.82;;
13590;SDS011;6866;50.778;7.206;2023-03-01T00:33:04;20.17;;;11.90;;
13590;SDS011;6866;50.778;7.206;2023-03-01T00:35:29;19.83;;;11.77;;
13590;SDS011;6866;50.778;7.206;2023-03-01T00:37:57;22.52;;;11.63;;
13590;SDS011;6866;50.778;7.206;2023-03-01T00:40:23;22.25;;;11.80;;
13590;SDS011;6866;50.778;7.206;2023-03-01T00:42:49;21.92;;;11.35;;
13590;SDS011;6866;50.778;7.206;2023-03-01T00:45:15;19.58;;;11.50;;
13590;SDS011;6866;50.778;7.206;2023-03-01T00:47:41;18.83;;;11.23;;
13590;SDS011;6866;50.778;7.206;2023-03-01T00:50:07;19.35;;;11.13;;
13590;SDS011;6866;50.778;7.206;2023-03-01T00:52:33;20.05;;;11.25;;
13590;SDS011;6866;50.778;7.206;2023-03-01T00:54:58;20.95;;;11.10;;
13590;SDS011;6866;50.778;7.206;2023-03-01T00:57:24;31.83;;;14.77;;
13590;SDS011;6866;50.778;7.206;2023-03-01T00:59:50;23.90;;;11.57;;
13590;SDS011;6866;50.778;7.206;2023-03-01T01:02:18;18.10;;;10.40;;
13590;SDS011;6866;50.778;7.206;2023-03-01T01:04:44;21.88;;;11.68;;
13590;SDS011;6866;50.778;7.206;2023-03-01T01:07:10;19.90;;;10.50;;
13590;SDS011;6866;50.778;7.206;2023-03-01T01:09:36;19.77;;;10.75;;
13590;SDS011;6866;50.778;7.206;2023-03-01T01:12:02;21.33;;;11.23;;
13590;SDS011;6866;50.778;7.206;2023-03-01T01:14:27;28.67;;;14.05;;
13590;SDS011;6866;50.778;7.206;2023-03-01T01:16:53;28.10;;;15.02;;
13590;SDS011;6866;50.778;7.206;2023-03-01T01:19:19;26.33;;;14.20;;
13590;SDS011;6866;50.778;7.206;2023-03-01T01:21:44;23.33;;;12.68;;
13590;SDS011;6866;50.778;7.206;2023-03-01T01:24:10;26.70;;;14.55;;
13590;SDS011;6866;50.778;7.206;2023-03-01T01:26:37;28.80;;;14.32;;
13590;SDS011;6866;50.778;7.206;2023-03-01T01:29:03;22.38;;;11.85;;
13590;SDS011;6866;50.778;7.206;2023-03-01T01:31:30;20.27;;;11.40;;
13590;SDS011;6866;50.778;7.206;2023-03-01T01:33:56;23.10;;;12.18;;
13590;SDS011;6866;50.778;7.206;2023-03-01T01:36:23;20.10;;;11.23;;
13590;SDS011;6866;50.778;7.206;2023-03-01T01:38:49;21.00;;;11.60;;
13590;SDS011;6866;50.778;7.206;2023-03-01T01:41:15;20.65;;;11.63;;
13590;SDS011;6866;50.778;7.206;2023-03-01T01:43:43;19.45;;;11.10;;
13590;SDS011;6866;50.778;7.206;2023-03-01T01:46:29;19.38;;;11.38;;
13590;SDS011;6866;50.778;7.206;2023-03-01T01:51:38;24.52;;;11.43;;
13590;SDS011;6866;50.778;7.206;2023-03-01T01:54:21;23.02;;;11.95;;
13590;SDS011;6866;50.778;7.206;2023-03-01T01:56:57;18.98;;;10.73;;
13590;SDS011;6866;50.778;7.206;2023-03-01T01:59:27;19.25;;;11.27;;
13590;SDS011;6866;50.778;7.206;2023-03-01T02:04:31;18.45;;;10.48;;
13590;SDS011;6866;50.778;7.206;2023-03-01T02:06:59;21.13;;;10.88;;
13590;SDS011;6866;50.778;7.206;2023-03-01T02:09:29;19.17;;;10.57;;
13590;SDS011;6866;50.778;7.206;2023-03-01T02:11:55;21.23;;;11.65;;
13590;SDS011;6866;50.778;7.206;2023-03-01T02:14:22;17.73;;;10.50;;
13590;SDS011;6866;50.778;7.206;2023-03-01T02:16:47;17.15;;;9.98;;
13590;SDS011;6866;50.778;7.206;2023-03-01T02:19:17;16.55;;;10.02;;
13590;SDS011;6866;50.778;7.206;2023-03-01T02:22:22;20.30;;;11.25;;
13590;SDS011;6866;50.778;7.206;2023-03-01T02:24:55;23.00;;;10.30;;
13590;SDS011;6866;50.778;7.206;2023-03-01T02:28:05;21.83;;;12.00;;
13590;SDS011;6866;50.778;7.206;2023-03-01T02:30:33;16.80;;;9.68;;
13590;SDS011;6866;50.778;7.206;2023-03-01T02:32:59;21.92;;;10.93;;
13590;SDS011;6866;50.778;7.206;2023-03-01T02:35:29;16.80;;;9.48;;
13590;SDS011;6866;50.778;7.206;2023-03-01T02:37:58;16.47;;;9.37;;
13590;SDS011;6866;50.778;7.206;2023-03-01T02:40:26;19.52;;;10.20;;
13590;SDS011;6866;50.778;7.206;2023-03-01T02:42:56;17.92;;;9.63;;
13590;SDS011;6866;50.778;7.206;2023-03-01T02:45:23;17.05;;;10.18;;
13590;SDS011;6866;50.778;7.206;2023-03-01T02:47:50;18.10;;;9.50;;
13590;SDS011;6866;50.778;7.206;2023-03-01T02:50:41;19.63;;;10.05;;
13590;SDS011;6866;50.778;7.206;2023-03-01T02:53:35;19.90;;;9.57;;
13590;SDS011;6866;50.778;7.206;2023-03-01T02:56:14;18.65;;;11.10;;
13590;SDS011;6866;50.778;7.206;2023-03-01T02:58:41;17.77;;;9.88;;
13590;SDS011;6866;50.778;7.206;2023-03-01T03:01:10;19.50;;;10.82;;
13590;SDS011;6866;50.778;7.206;2023-03-01T03:03:36;16.13;;;9.02;;
13590;SDS011;6866;50.778;7.206;2023-03-01T03:06:01;18.95;;;10.75;;
13590;SDS011;6866;50.778;7.206;2023-03-01T03:08:27;20.00;;;10.30;;
13590;SDS011;6866;50.778;7.206;2023-03-01T03:10:52;18.83;;;9.50;;
13590;SDS011;6866;50.778;7.206;2023-03-01T03:13:18;16.83;;;9.10;;
13590;SDS011;6866;50.778;7.206;2023-03-01T03:15:44;17.88;;;10.18;;
13590;SDS011;6866;50.778;7.206;2023-03-01T03:18:17;18.98;;;9.82;;
13590;SDS011;6866;50.778;7.206;2023-03-01T03:20:44;21.05;;;9.52;;
13590;SDS011;6866;50.778;7.206;2023-03-01T03:23:10;19.08;;;10.88;;
13590;SDS011;6866;50.778;7.206;2023-03-01T03:25:36;19.60;;;10.20;;
13590;SDS011;6866;50.778;7.206;2023-03-01T03:28:03;18.52;;;10.18;;
13590;SDS011;6866;50.778;7.206;2023-03-01T03:33:00;19.65;;;9.82;;
13590;SDS011;6866;50.778;7.206;2023-03-01T03:35:30;17.25;;;9.35;;
13590;SDS011;6866;50.778;7.206;2023-03-01T03:37:59;17.48;;;9.73;;
13590;SDS011;6866;50.778;7.206;2023-03-01T03:40:27;20.40;;;9.82;;
13590;SDS011;6866;50.778;7.206;2023-03-01T03:43:00;18.08;;;9.82;;
13590;SDS011;6866;50.778;7.206;2023-03-01T03:45:26;18.45;;;9.95;;
13590;SDS011;6866;50.778;7.206;2023-03-01T03:47:52;17.77;;;9.98;;
13590;SDS011;6866;50.778;7.206;2023-03-01T03:50:17;19.88;;;10.40;;
13590;SDS011;6866;50.778;7.206;2023-03-01T03:52:43;17.33;;;9.55;;
13590;SDS011;6866;50.778;7.206;2023-03-01T03:55:10;19.40;;;10.15;;
13590;SDS011;6866;50.778;7.206;2023-03-01T03:57:40;23.63;;;10.60;;
13590;SDS011;6866;50.778;7.206;2023-03-01T04:00:07;23.25;;;9.95;;
13590;SDS011;6866;50.778;7.206;2023-03-01T04:02:38;20.98;;;10.80;;
13590;SDS011;6866;50.778;7.206;2023-03-01T04:05:05;19.67;;;10.57;;
13590;SDS011;6866;50.778;7.206;2023-03-01T04:07:33;21.77;;;11.27;;
13590;SDS011;6866;50.778;7.206;2023-03-01T04:09:59;21.02;;;10.65;;
13590;SDS011;6866;50.778;7.206;2023-03-01T04:12:24;16.63;;;9.95;;
13590;SDS011;6866;50.778;7.206;2023-03-01T04:14:50;17.17;;;9.55;;
13590;SDS011;6866;50.778;7.206;2023-03-01T04:17:15;21.45;;;11.15;;
13590;SDS011;6866;50.778;7.206;2023-03-01T04:19:41;20.83;;;10.50;;
13590;SDS011;6866;50.778;7.206;2023-03-01T04:22:09;16.02;;;9.63;;
13590;SDS011;6866;50.778;7.206;2023-03-01T04:24:36;19.23;;;11.45;;
13590;SDS011;6866;50.778;7.206;2023-03-01T04:27:02;19.25;;;10.68;;
13590;SDS011;6866;50.778;7.206;2023-03-01T04:29:27;19.73;;;10.23;;
13590;SDS011;6866;50.778;7.206;2023-03-01T04:31:53;18.13;;;10.32;;
13590;SDS011;6866;50.778;7.206;2023-03-01T04:34:18;17.30;;;10.25;;
13590;SDS011;6866;50.778;7.206;2023-03-01T04:36:44;19.27;;;10.52;;
13590;SDS011;6866;50.778;7.206;2023-03-01T04:39:10;17.73;;;10.65;;
13590;SDS011;6866;50.778;7.206;2023-03-01T04:41:38;19.08;;;10.55;;
13590;SDS011;6866;50.778;7.206;2023-03-01T04:44:05;19.48;;;10.50;;
13590;SDS011;6866;50.778;7.206;2023-03-01T04:46:31;20.33;;;10.95;;
13590;SDS011;6866;50.778;7.206;2023-03-01T04:48:56;22.27;;;10.48;;
13590;SDS011;6866;50.778;7.206;2023-03-01T04:51:22;20.25;;;10.70;;
13590;SDS011;6866;50.778;7.206;2023-03-01T04:53:48;17.83;;;10.52;;
13590;SDS011;6866;50.778;7.206;2023-03-01T04:56:14;18.75;;;10.10;;
13590;SDS011;6866;50.778;7.206;2023-03-01T04:58:42;21.35;;;11.10;;
13590;SDS011;6866;50.778;7.206;2023-03-01T05:01:17;21.25;;;10.75;;
13590;SDS011;6866;50.778;7.206;2023-03-01T05:03:45;20.27;;;9.27;;
13590;SDS011;6866;50.778;7.206;2023-03-01T05:06:16;20.35;;;10.57;;
13590;SDS011;6866;50.778;7.206;2023-03-01T05:08:42;23.92;;;10.85;;
13590;SDS011;6866;50.778;7.206;2023-03-01T05:11:08;17.05;;;9.90;;
13590;SDS011;6866;50.778;7.206;2023-03-01T05:13:35;18.90;;;10.45;;
13590;SDS011;6866;50.778;7.206;2023-03-01T05:16:02;19.35;;;10.07;;
13590;SDS011;6866;50.778;7.206;2023-03-01T05:18:30;18.45;;;9.93;;
13590;SDS011;6866;50.778;7.206;2023-03-01T05:21:03;19.45;;;9.93;;
13590;SDS011;6866;50.778;7.206;2023-03-01T05:23:31;15.57;;;9.32;;
13590;SDS011;6866;50.778;7.206;2023-03-01T05:25:58;21.40;;;10.27;;
13590;SDS011;6866;50.778;7.206;2023-03-01T05:28:24;18.55;;;10.52;;
13590;SDS011;6866;50.778;7.206;2023-03-01T05:30:51;22.67;;;10.23;;
13590;SDS011;6866;50.778;7.206;2023-03-01T05:33:17;19.35;;;10.20;;
13590;SDS011;6866;50.778;7.206;2023-03-01T05:35:43;17.88;;;9.93;;
13590;SDS011;6866;50.778;7.206;2023-03-01T05:38:10;20.10;;;11.40;;
13590;SDS011;6866;50.778;7.206;2023-03-01T05:40:38;23.42;;;10.60;;
13590;SDS011;6866;50.778;7.206;2023-03-01T05:43:04;18.40;;;10.50;;
13590;SDS011;6866;50.778;7.206;2023-03-01T05:45:30;19.13;;;10.25;;
13590;SDS011;6866;50.778;7.206;2023-03-01T05:47:57;22.52;;;10.25;;
13590;SDS011;6866;50.778;7.206;2023-03-01T05:50:24;18.33;;;10.27;;
13590;SDS011;6866;50.778;7.206;2023-03-01T05:52:55;17.90;;;10.30;;
13590;SDS011;6866;50.778;7.206;2023-03-01T05:55:25;21.38;;;10.95;;
13590;SDS011;6866;50.778;7.206;2023-03-01T05:57:52;18.00;;;9.82;;
13590;SDS011;6866;50.778;7.206;2023-03-01T06:00:18;19.92;;;10.57;;
13590;SDS011;6866;50.778;7.206;2023-03-01T06:02:47;20.70;;;11.10;;
13590;SDS011;6866;50.778;7.206;2023-03-01T06:05:13;25.45;;;12.20;;
13590;SDS011;6866;50.778;7.206;2023-03-01T06:07:39;31.65;;;13.13;;
13590;SDS011;6866;50.778;7.206;2023-03-01T06:10:06;26.20;;;13.63;;
13590;SDS011;6866;50.778;7.206;2023-03-01T06:12:33;34.33;;;14.00;;
13590;SDS011;6866;50.778;7.206;2023-03-01T06:15:00;23.42;;;12.75;;
13590;SDS011;6866;50.778;7.206;2023-03-01T06:17:30;32.80;;;13.68;;
13590;SDS011;6866;50.778;7.206;2023-03-01T06:19:57;28.38;;;15.57;;
13590;SDS011;6866;50.778;7.206;2023-03-01T06:22:23;26.13;;;14.30;;
13590;SDS011;6866;50.778;7.206;2023-03-01T06:24:49;27.80;;;14.50;;
13590;SDS011;6866;50.778;7.206;2023-03-01T06:27:14;24.00;;;12.82;;
13590;SDS011;6866;50.778;7.206;2023-03-01T06:29:40;24.63;;;12.60;;
13590;SDS011;6866;50.778;7.206;2023-03-01T06:32:06;21.90;;;11.35;;
13590;SDS011;6866;50.778;7.206;2023-03-01T06:34:33;20.05;;;10.63;;
13590;SDS011;6866;50.778;7.206;2023-03-01T06:36:58;26.42;;;11.10;;
13590;SDS011;6866;50.778;7.206;2023-03-01T06:39:24;24.10;;;11.70;;
13590;SDS011;6866;50.778;7.206;2023-03-01T06:41:50;25.10;;;12.57;;
13590;SDS011;6866;50.778;7.206;2023-03-01T06:44:16;22.58;;;11.57;;
13590;SDS011;6866;50.778;7.206;2023-03-01T06:46:42;28.15;;;14.45;;
13590;SDS011;6866;50.778;7.206;2023-03-01T06:49:07;27.02;;;12.73;;
13590;SDS011;6866;50.778;7.206;2023-03-01T06:51:34;25.20;;;12.00;;
13590;SDS011;6866;50.778;7.206;2023-03-01T06:54:02;28.73;;;12.38;;
13590;SDS011;6866;50.778;7.206;2023-03-01T06:56:31;29.38;;;13.77;;
13590;SDS011;6866;50.778;7.206;2023-03-01T06:58:56;24.38;;;13.30;;
13590;SDS011;6866;50.778;7.206;2023-03-01T07:01:22;27.20;;;12.98;;
13590;SDS011;6866;50.778;7.206;2023-03-01T07:03:48;26.17;;;13.63;;
13590;SDS011;6866;50.778;7.206;2023-03-01T07:06:13;26.80;;;13.75;;
13590;SDS011;6866;50.778;7.206;2023-03-01T07:08:39;30.67;;;18.25;;
13590;SDS011;6866;50.778;7.206;2023-03-01T07:11:04;29.35;;;17.40;;
13590;SDS011;6866;50.778;7.206;2023-03-01T07:13:30;29.67;;;15.93;;
13590;SDS011;6866;50.778;7.206;2023-03-01T07:15:56;24.38;;;13.73;;
13590;SDS011;6866;50.778;7.206;2023-03-01T07:18:22;21.00;;;13.18;;
13590;SDS011;6866;50.778;7.206;2023-03-01T07:20:48;26.20;;;13.38;;
13590;SDS011;6866;50.778;7.206;2023-03-01T07:23:13;21.50;;;13.05;;
13590;SDS011;6866;50.778;7.206;2023-03-01T07:25:39;19.65;;;12.98;;
13590;SDS011;6866;50.778;7.206;2023-03-01T07:28:04;21.27;;;13.55;;
13590;SDS011;6866;50.778;7.206;2023-03-01T07:30:30;19.95;;;11.25;;
13590;SDS011;6866;50.778;7.206;2023-03-01T07:32:56;20.80;;;12.13;;
13590;SDS011;6866;50.778;7.206;2023-03-01T07:35:22;22.50;;;12.40;;
13590;SDS011;6866;50.778;7.206;2023-03-01T07:37:49;17.60;;;11.45;;
13590;SDS011;6866;50.778;7.206;2023-03-01T07:40:15;22.33;;;11.35;;
13590;SDS011;6866;50.778;7.206;2023-03-01T07:42:40;19.00;;;11.70;;
13590;SDS011;6866;50.778;7.206;2023-03-01T07:45:06;20.17;;;11.57;;
13590;SDS011;6866;50.778;7.206;2023-03-01T07:47:32;20.25;;;11.82;;
13590;SDS011;6866;50.778;7.206;2023-03-01T07:49:58;17.33;;;11.10;;
13590;SDS011;6866;50.778;7.206;2023-03-01T07:52:23;19.23;;;12.30;;
13590;SDS011;6866;50.778;7.206;2023-03-01T07:57:14;21.35;;;11.93;;
13590;SDS011;6866;50.778;7.206;2023-03-01T07:59:40;23.15;;;12.13;;
13590;SDS011;6866;50.778;7.206;2023-03-01T08:02:06;20.67;;;12.50;;
13590;SDS011;6866;50.778;7.206;2023-03-01T08:04:31;22.13;;;12.77;;
13590;SDS011;6866;50.778;7.206;2023-03-01T08:06:58;20.85;;;12.18;;
13590;SDS011;6866;50.778;7.206;2023-03-01T08:09:23;17.60;;;11.85;;
13590;SDS011;6866;50.778;7.206;2023-03-01T08:11:49;18.30;;;11.88;;
13590;SDS011;6866;50.778;7.206;2023-03-01T08:14:15;21.27;;;11.48;;
13590;SDS011;6866;50.778;7.206;2023-03-01T08:19:06;23.27;;;12.68;;
13590;SDS011;6866;50.778;7.206;2023-03-01T08:21:34;24.75;;;12.25;;
13590;SDS011;6866;50.778;7.206;2023-03-01T08:24:04;20.17;;;12.23;;
13590;SDS011;6866;50.778;7.206;2023-03-01T08:26:31;22.00;;;12.82;;
13590;SDS011;6866;50.778;7.206;2023-03-01T08:28:57;24.40;;;15.23;;
13590;SDS011;6866;50.778;7.206;2023-03-01T08:33:51;22.85;;;12.43;;
13590;SDS011;6866;50.778;7.206;2023-03-01T08:36:20;23.13;;;12.65;;
13590;SDS011;6866;50.778;7.206;2023-03-01T08:38:47;24.58;;;12.65;;
13590;SDS011;6866;50.778;7.206;2023-03-01T08:41:13;23.27;;;13.55;;
13590;SDS011;6866;50.778;7.206;2023-03-01T08:43:39;19.17;;;12.38;;
13590;SDS011;6866;50.778;7.206;2023-03-01T08:48:30;21.95;;;13.30;;
13590;SDS011;6866;50.778;7.206;2023-03-01T08:50:56;21.38;;;12.75;;
13590;SDS011;6866;50.778;7.206;2023-03-01T08:53:22;19.45;;;13.52;;
13590;SDS011;6866;50.778;7.206;2023-03-01T08:55:47;20.75;;;13.05;;
13590;SDS011;6866;50.778;7.206;2023-03-01T08:58:13;21.02;;;12.95;;
13590;SDS011;6866;50.778;7.206;2023-03-01T09:00:39;19.98;;;13.43;;
13590;SDS011;6866;50.778;7.206;2023-03-01T09:03:05;22.48;;;12.95;;
13590;SDS011;6866;50.778;7.206;2023-03-01T09:05:31;23.42;;;12.23;;
13590;SDS011;6866;50.778;7.206;2023-03-01T09:07:58;20.17;;;12.60;;
13590;SDS011;6866;50.778;7.206;2023-03-01T09:10:24;22.20;;;13.32;;
13590;SDS011;6866;50.778;7.206;2023-03-01T09:12:49;21.60;;;12.65;;
13590;SDS011;6866;50.778;7.206;2023-03-01T09:15:15;17.42;;;12.48;;
13590;SDS011;6866;50.778;7.206;2023-03-01T09:17:41;17.38;;;11.77;;
13590;SDS011;6866;50.778;7.206;2023-03-01T09:20:07;19.70;;;11.90;;
13590;SDS011;6866;50.778;7.206;2023-03-01T09:22:33;20.15;;;11.82;;
13590;SDS011;6866;50.778;7.206;2023-03-01T09:25:00;18.88;;;11.82;;
13590;SDS011;6866;50.778;7.206;2023-03-01T09:27:25;17.58;;;11.75;;
13590;SDS011;6866;50.778;7.206;2023-03-01T09:29:51;21.52;;;12.52;;
13590;SDS011;6866;50.778;7.206;2023-03-01T09:32:16;18.83;;;11.68;;
13590;SDS011;6866;50.778;7.206;2023-03-01T09:34:42;17.25;;;11.27;;
13590;SDS011;6866;50.778;7.206;2023-03-01T09:37:27;17.25;;;12.32;;
13590;SDS011;6866;50.778;7.206;2023-03-01T09:39:52;19.25;;;11.75;;
13590;SDS011;6866;50.778;7.206;2023-03-01T09:42:18;16.83;;;11.32;;
13590;SDS011;6866;50.778;7.206;2023-03-01T09:47:23;17.08;;;11.25;;
13590;SDS011;6866;50.778;7.206;2023-03-01T09:49:58;15.48;;;11.13;;
13590;SDS011;6866;50.778;7.206;2023-03-01T09:52:34;15.48;;;11.18;;
13590;SDS011;6866;50.778;7.206;2023-03-01T09:55:01;17.27;;;11.30;;
13590;SDS011;6866;50.778;7.206;2023-03-01T09:57:43;21.33;;;10.70;;
13590;SDS011;6866;50.778;7.206;2023-03-01T10:00:43;14.55;;;10.38;;
13590;SDS011;6866;50.778;7.206;2023-03-01T10:03:32;18.35;;;9.93;;
13590;SDS011;6866;50.778;7.206;2023-03-01T10:06:05;16.88;;;10.13;;
13590;SDS011;6866;50.778;7.206;2023-03-01T10:13:57;14.48;;;9.60;;
13590;SDS011;6866;50.778;7.206;2023-03-01T10:16:57;14.75;;;9.60;;
13590;SDS011;6866;50.778;7.206;2023-03-01T10:19:42;14.23;;;9.00;;
13590;SDS011;6866;50.778;7.206;2023-03-01T10:22:11;13.30;;;9.43;;
13590;SDS011;6866;50.778;7.206;2023-03-01T10:24:38;15.57;;;9.65;;
13590;SDS011;6866;50.778;7.206;2023-03-01T10:27:16;14.88;;;9.18;;
13590;SDS011;6866;50.778;7.206;2023-03-01T10:29:55;16.85;;;9.80;;
13590;SDS011;6866;50.778;7.206;2023-03-01T10:32:28;14.70;;;9.13;;
13590;SDS011;6866;50.778;7.206;2023-03-01T10:34:54;17.65;;;9.32;;
13590;SDS011;6866;50.778;7.206;2023-03-01T10:37:20;16.35;;;9.00;;
13590;SDS011;6866;50.778;7.206;2023-03-01T10:39:54;15.50;;;9.20;;
13590;SDS011;6866;50.778;7.206;2023-03-01T10:42:25;12.77;;;9.00;;
13590;SDS011;6866;50.778;7.206;2023-03-01T10:44:53;16.00;;;8.75;;
13590;SDS011;6866;50.778;7.206;2023-03-01T10:47:21;18.55;;;9.65;;
13590;SDS011;6866;50.778;7.206;2023-03-01T10:52:24;16.05;;;9.18;;
13590;SDS011;6866;50.778;7.206;2023-03-01T10:54:59;17.08;;;9.20;;
13590;SDS011;6866;50.778;7.206;2023-03-01T10:57:45;15.27;;;8.90;;
13590;SDS011;6866;50.778;7.206;2023-03-01T11:02:49;16.23;;;9.15;;
13590;SDS011;6866;50.778;7.206;2023-03-01T11:05:24;17.10;;;9.00;;
13590;SDS011;6866;50.778;7.206;2023-03-01T11:07:54;17.15;;;9.00;;
13590;SDS011;6866;50.778;7.206;2023-03-01T11:10:26;14.95;;;9.27;;
13590;SDS011;6866;50.778;7.206;2023-03-01T11:13:06;14.10;;;8.70;;
13590;SDS011;6866;50.778;7.206;2023-03-01T11:15:42;13.65;;;8.27;;
13590;SDS011;6866;50.778;7.206;2023-03-01T11:18:23;13.75;;;7.78;;
13590;SDS011;6866;50.778;7.206;2023-03-01T11:20:50;13.77;;;8.35;;
13590;SDS011;6866;50.778;7.206;2023-03-01T11:23:18;15.43;;;8.02;;
13590;SDS011;6866;50.778;7.206;2023-03-01T11:25:49;12.75;;;7.20;;
13590;SDS011;6866;50.778;7.206;2023-03-01T11:28:25;14.20;;;8.27;;
13590;SDS011;6866;50.778;7.206;2023-03-01T11:30:55;14.15;;;8.07;;
13590;SDS011;6866;50.778;7.206;2023-03-01T11:36:30;15.38;;;8.07;;
13590;SDS011;6866;50.778;7.206;2023-03-01T11:39:21;12.55;;;7.70;;
13590;SDS011;6866;50.778;7.206;2023-03-01T11:42:15;13.20;;;7.50;;
13590;SDS011;6866;50.778;7.206;2023-03-01T11:44:46;13.82;;;7.70;;
13590;SDS011;6866;50.778;7.206;2023-03-01T11:56:03;11.88;;;7.13;;
13590;SDS011;6866;50.778;7.206;2023-03-01T12:01:31;10.38;;;6.25;;
13590;SDS011;6866;50.778;7.206;2023-03-01T12:04:36;11.05;;;6.18;;
13590;SDS011;6866;50.778;7.206;2023-03-01T12:07:13;10.35;;;6.53;;
13590;SDS011;6866;50.778;7.206;2023-03-01T12:09:46;12.95;;;5.80;;
13590;SDS011;6866;50.778;7.206;2023-03-01T12:12:58;11.75;;;6.35;;
13590;SDS011;6866;50.778;7.206;2023-03-01T12:18:37;10.07;;;5.72;;
13590;SDS011;6866;50.778;7.206;2023-03-01T12:24:04;12.23;;;5.68;;
13590;SDS011;6866;50.778;7.206;2023-03-01T12:26:55;10.27;;;6.13;;
13590;SDS011;6866;50.778;7.206;2023-03-01T12:29:38;9.68;;;5.47;;
13590;SDS011;6866;50.778;7.206;2023-03-01T12:37:54;9.60;;;5.32;;
13590;SDS011;6866;50.778;7.206;2023-03-01T12:43:28;9.82;;;5.90;;
13590;SDS011;6866;50.778;7.206;2023-03-01T12:48:50;9.52;;;5.68;;
13590;SDS011;6866;50.778;7.206;2023-03-01T12:51:26;12.40;;;6.18;;
13590;SDS011;6866;50.778;7.206;2023-03-01T12:53:57;11.73;;;5.72;;
13590;SDS011;6866;50.778;7.206;2023-03-01T12:56:27;10.00;;;5.40;;
13590;SDS011;6866;50.778;7.206;2023-03-01T13:04:22;9.73;;;5.80;;
13590;SDS011;6866;50.778;7.206;2023-03-01T13:09:35;10.35;;;5.90;;
13590;SDS011;6866;50.778;7.206;2023-03-01T13:15:36;11.88;;;5.65;;
13590;SDS011;6866;50.778;7.206;2023-03-01T13:18:03;9.68;;;5.63;;
13590;SDS011;6866;50.778;7.206;2023-03-01T13:23:23;10.27;;;5.45;;
13590;SDS011;6866;50.778;7.206;2023-03-01T13:44:19;7.77;;;4.30;;
13590;SDS011;6866;50.778;7.206;2023-03-01T13:46:49;9.27;;;4.72;;
13590;SDS011;6866;50.778;7.206;2023-03-01T13:49:18;7.43;;;4.20;;
13590;SDS011;6866;50.778;7.206;2023-03-01T13:51:47;7.25;;;3.88;;
13590;SDS011;6866;50.778;7.206;2023-03-01T13:54:14;7.95;;;4.20;;
13590;SDS011;6866;50.778;7.206;2023-03-01T13:56:43;8.95;;;4.45;;
13590;SDS011;6866;50.778;7.206;2023-03-01T13:59:19;7.65;;;4.10;;
13590;SDS011;6866;50.778;7.206;2023-03-01T14:01:53;8.38;;;4.20;;
13590;SDS011;6866;50.778;7.206;2023-03-01T14:04:30;7.60;;;4.18;;
13590;SDS011;6866;50.778;7.206;2023-03-01T14:09:43;10.70;;;4.32;;
13590;SDS011;6866;50.778;7.206;2023-03-01T14:12:20;7.68;;;4.03;;
13590;SDS011;6866;50.778;7.206;2023-03-01T14:15:31;9.27;;;4.50;;
13590;SDS011;6866;50.778;7.206;2023-03-01T14:18:07;8.35;;;4.03;;
13590;SDS011;6866;50.778;7.206;2023-03-01T14:20:39;9.27;;;3.70;;
13590;SDS011;6866;50.778;7.206;2023-03-01T14:23:17;8.18;;;4.05;;
13590;SDS011;6866;50.778;7.206;2023-03-01T14:25:48;6.60;;;3.78;;
13590;SDS011;6866;50.778;7.206;2023-03-01T14:30:53;7.85;;;4.20;;
13590;SDS011;6866;50.778;7.206;2023-03-01T14:33:24;10.25;;;4.60;;
13590;SDS011;6866;50.778;7.206;2023-03-01T14:35:52;9.10;;;4.65;;
13590;SDS011;6866;50.778;7.206;2023-03-01T14:38:22;10.60;;;4.93;;
13590;SDS011;6866;50.778;7.206;2023-03-01T14:40:53;8.07;;;4.53;;
13590;SDS011;6866;50.778;7.206;2023-03-01T14:43:23;9.50;;;4.70;;
13590;SDS011;6866;50.778;7.206;2023-03-01T14:45:51;6.88;;;4.15;;
13590;SDS011;6866;50.778;7.206;2023-03-01T14:48:16;10.05;;;4.43;;
13590;SDS011;6866;50.778;7.206;2023-03-01T14:50:43;7.95;;;4.43;;
13590;SDS011;6866;50.778;7.206;2023-03-01T14:53:24;8.57;;;4.65;;
13590;SDS011;6866;50.778;7.206;2023-03-01T14:55:53;9.32;;;4.70;;
13590;SDS011;6866;50.778;7.206;2023-03-01T14:58:24;8.30;;;4.28;;
13590;SDS011;6866;50.778;7.206;2023-03-01T15:00:57;8.10;;;4.60;;
13590;SDS011;6866;50.778;7.206;2023-03-01T15:03:35;7.38;;;4.38;;
13590;SDS011;6866;50.778;7.206;2023-03-01T15:06:14;8.02;;;4.50;;
13590;SDS011;6866;50.778;7.206;2023-03-01T15:08:44;7.37;;;4.20;;
13590;SDS011;6866;50.778;7.206;2023-03-01T15:13:49;8.18;;;4.35;;
13590;SDS011;6866;50.778;7.206;2023-03-01T15:16:19;10.45;;;4.63;;
13590;SDS011;6866;50.778;7.206;2023-03-01T15:18:55;8.60;;;4.55;;
13590;SDS011;6866;50.778;7.206;2023-03-01T15:24:15;10.18;;;6.00;;
13590;SDS011;6866;50.778;7.206;2023-03-01T15:26:52;8.35;;;4.43;;
13590;SDS011;6866;50.778;7.206;2023-03-01T15:29:23;7.03;;;3.97;;
13590;SDS011;6866;50.778;7.206;2023-03-01T15:31:58;6.75;;;3.67;;
13590;SDS011;6866;50.778;7.206;2023-03-01T15:34:27;8.02;;;3.47;;
13590;SDS011;6866;50.778;7.206;2023-03-01T15:36:58;5.93;;;3.55;;
13590;SDS011;6866;50.778;7.206;2023-03-01T15:39:33;6.78;;;3.63;;
13590;SDS011;6866;50.778;7.206;2023-03-01T15:42:04;8.32;;;3.92;;
13590;SDS011;6866;50.778;7.206;2023-03-01T15:44:37;8.32;;;3.95;;
13590;SDS011;6866;50.778;7.206;2023-03-01T15:50:05;7.05;;;3.60;;
13590;SDS011;6866;50.778;7.206;2023-03-01T15:52:41;7.72;;;3.78;;
13590;SDS011;6866;50.778;7.206;2023-03-01T15:55:21;7.00;;;3.80;;
13590;SDS011;6866;50.778;7.206;2023-03-01T15:58:04;7.28;;;3.65;;
13590;SDS011;6866;50.778;7.206;2023-03-01T16:00:34;6.75;;;3.85;;
13590;SDS011;6866;50.778;7.206;2023-03-01T16:03:00;8.00;;;4.28;;
13590;SDS011;6866;50.778;7.206;2023-03-01T16:05:30;9.70;;;4.82;;
13590;SDS011;6866;50.778;7.206;2023-03-01T16:07:57;12.13;;;4.90;;
13590;SDS011;6866;50.778;7.206;2023-03-01T16:10:23;10.00;;;5.32;;
13590;SDS011;6866;50.778;7.206;2023-03-01T16:12:50;9.98;;;5.53;;
13590;SDS011;6866;50.778;7.206;2023-03-01T16:15:18;12.43;;;5.60;;
13590;SDS011;6866;50.778;7.206;2023-03-01T16:17:47;10.25;;;5.38;;
13590;SDS011;6866;50.778;7.206;2023-03-01T16:20:13;9.48;;;5.55;;
13590;SDS011;6866;50.778;7.206;2023-03-01T16:22:42;10.07;;;5.25;;
13590;SDS011;6866;50.778;7.206;2023-03-01T16:25:12;10.32;;;4.85;;
13590;SDS011;6866;50.778;7.206;2023-03-01T16:30:14;14.15;;;5.75;;
13590;SDS011;6866;50.778;7.206;2023-03-01T16:32:42;10.38;;;5.32;;
13590;SDS011;6866;50.778;7.206;2023-03-01T16:35:09;9.70;;;4.80;;
13590;SDS011;6866;50.778;7.206;2023-03-01T16:37:37;7.35;;;4.40;;
13590;SDS011;6866;50.778;7.206;2023-03-01T16:40:04;8.52;;;5.15;;
13590;SDS011;6866;50.778;7.206;2023-03-01T16:42:34;13.57;;;5.50;;
13590;SDS011;6866;50.778;7.206;2023-03-01T16:45:00;12.00;;;5.03;;
13590;SDS011;6866;50.778;7.206;2023-03-01T16:47:26;10.27;;;5.82;;
13590;SDS011;6866;50.778;7.206;2023-03-01T16:49:52;11.45;;;6.00;;